createdAt,value
2023-09-15T00:01:10.227Z,22.35
2023-09-15T00:03:36.741Z,22.36
2023-09-15T00:06:03.187Z,22.36
2023-09-15T00:08:29.818Z,22.35
2023-09-15T00:10:56.209Z,22.34
2023-09-15T00:13:22.687Z,22.33
2023-09-15T00:15:52.010Z,22.32
2023-09-15T00:18:19.765Z,22.31
2023-09-15T00:20:46.204Z,22.32
2023-09-15T00:23:12.596Z,22.32
2023-09-15T00:25:38.967Z,22.31
2023-09-15T00:28:05.454Z,22.31
2023-09-15T00:30:33.810Z,22.31
2023-09-15T00:33:00.321Z,22.32
2023-09-15T00:35:29.321Z,22.30
2023-09-15T00:37:58.783Z,22.30
2023-09-15T00:40:25.362Z,22.29
2023-09-15T00:42:52.219Z,22.29
2023-09-15T00:45:20.763Z,22.27
2023-09-15T00:47:48.690Z,22.26
2023-09-15T00:50:15.663Z,22.27
2023-09-15T00:52:42.149Z,22.26
2023-09-15T00:55:09.929Z,22.25
2023-09-15T00:57:38.280Z,22.27
2023-09-15T01:00:05.159Z,22.27
2023-09-15T01:02:33.269Z,22.26
2023-09-15T01:04:59.811Z,22.26
2023-09-15T01:07:26.200Z,22.24
2023-09-15T01:09:52.657Z,22.25
2023-09-15T01:12:19.076Z,22.25
2023-09-15T01:14:46.676Z,22.25
2023-09-15T01:17:24.484Z,22.25
2023-09-15T01:19:56.559Z,22.23
2023-09-15T01:22:37.430Z,22.24
2023-09-15T01:25:10.536Z,22.20
2023-09-15T01:27:48.851Z,22.18
2023-09-15T01:30:15.323Z,22.17
2023-09-15T01:32:42.605Z,22.16
2023-09-15T01:35:09.228Z,22.17
2023-09-15T01:37:35.651Z,22.15
2023-09-15T01:40:02.154Z,22.16
2023-09-15T01:42:29.024Z,22.17
2023-09-15T01:44:56.352Z,22.14
2023-09-15T01:47:22.853Z,22.14
2023-09-15T01:49:50.124Z,22.14
2023-09-15T01:52:16.692Z,22.14
2023-09-15T01:54:43.231Z,22.14
2023-09-15T01:57:09.788Z,22.13
2023-09-15T01:59:36.235Z,22.12
2023-09-15T02:02:02.808Z,22.11
2023-09-15T02:04:29.271Z,22.13
2023-09-15T02:06:55.771Z,22.11
2023-09-15T02:09:22.260Z,22.12
2023-09-15T02:11:48.697Z,22.11
2023-09-15T02:14:15.167Z,22.11
2023-09-15T02:16:43.601Z,22.11
2023-09-15T02:19:10.336Z,22.11
2023-09-15T02:21:37.182Z,22.10
2023-09-15T02:24:03.819Z,22.08
2023-09-15T02:26:30.686Z,22.09
2023-09-15T02:28:57.099Z,22.10
2023-09-15T02:31:23.762Z,22.08
2023-09-15T02:33:50.401Z,22.07
2023-09-15T02:36:16.825Z,22.07
2023-09-15T02:38:43.342Z,22.09
2023-09-15T02:41:09.898Z,22.07
2023-09-15T02:43:36.307Z,22.07
2023-09-15T02:46:04.369Z,22.05
2023-09-15T02:48:31.129Z,22.05
2023-09-15T02:50:58.315Z,22.05
2023-09-15T02:53:25.288Z,22.05
2023-09-15T02:55:55.612Z,22.04
2023-09-15T02:58:22.216Z,22.06
2023-09-15T03:00:49.808Z,22.05
2023-09-15T03:03:16.397Z,22.04
2023-09-15T03:05:42.898Z,22.02
2023-09-15T03:08:10.290Z,22.03
2023-09-15T03:10:36.743Z,22.03
2023-09-15T03:13:05.289Z,22.03
2023-09-15T03:15:33.485Z,22.03
2023-09-15T03:17:59.998Z,22.02
2023-09-15T03:20:26.456Z,22.01
2023-09-15T03:22:53.348Z,22.00
2023-09-15T03:25:20.343Z,22.01
2023-09-15T03:27:46.846Z,21.99
2023-09-15T03:30:13.276Z,21.98
2023-09-15T03:32:39.796Z,21.99
2023-09-15T03:35:09.385Z,22.00
2023-09-15T03:37:35.797Z,21.99
2023-09-15T03:40:03.705Z,21.99
2023-09-15T03:42:32.286Z,22.00
2023-09-15T03:44:59.013Z,21.97
2023-09-15T03:47:25.415Z,21.98
2023-09-15T03:49:52.199Z,21.98
2023-09-15T03:52:18.686Z,21.96
2023-09-15T03:54:45.183Z,21.97
2023-09-15T03:57:11.577Z,21.98
2023-09-15T03:59:38.040Z,21.98
2023-09-15T04:02:08.328Z,21.96
2023-09-15T04:04:34.847Z,21.97
2023-09-15T04:07:01.286Z,21.94
2023-09-15T04:09:27.888Z,21.91
2023-09-15T04:11:54.869Z,21.89
2023-09-15T04:14:22.192Z,21.92
2023-09-15T04:16:49.276Z,21.93
2023-09-15T04:19:15.755Z,21.94
2023-09-15T04:21:43.504Z,21.94
2023-09-15T04:24:09.948Z,21.95
2023-09-15T04:26:36.382Z,21.93
2023-09-15T04:29:02.784Z,21.92
2023-09-15T04:31:29.403Z,21.88
2023-09-15T04:33:55.924Z,21.84
2023-09-15T04:36:22.349Z,21.84
2023-09-15T04:38:49.060Z,21.87
2023-09-15T04:41:15.686Z,21.91
2023-09-15T04:43:42.094Z,21.90
2023-09-15T04:46:08.697Z,21.90
2023-09-15T04:48:35.190Z,21.90
2023-09-15T04:51:01.614Z,21.84
2023-09-15T04:53:29.022Z,21.91
2023-09-15T04:55:55.751Z,21.33
2023-09-15T04:58:22.807Z,21.69
2023-09-15T05:00:49.422Z,22.11
2023-09-15T05:03:16.003Z,22.22
2023-09-15T05:05:44.662Z,22.30
2023-09-15T05:08:11.298Z,22.37
2023-09-15T05:10:37.704Z,22.21
2023-09-15T05:13:06.519Z,22.13
2023-09-15T05:15:35.383Z,21.90
2023-09-15T05:18:02.866Z,21.83
2023-09-15T05:20:31.235Z,21.82
2023-09-15T05:22:57.739Z,21.82
2023-09-15T05:25:24.223Z,21.82
2023-09-15T05:27:50.910Z,21.81
2023-09-15T05:30:17.392Z,21.83
2023-09-15T05:32:43.872Z,21.77
2023-09-15T05:35:11.668Z,21.77
2023-09-15T05:37:38.588Z,20.28
2023-09-15T05:40:05.275Z,19.25
2023-09-15T05:42:31.709Z,19.29
2023-09-15T05:44:58.105Z,20.02
2023-09-15T05:47:24.566Z,20.59
2023-09-15T05:49:51.040Z,20.95
2023-09-15T05:52:18.063Z,21.22
2023-09-15T05:54:44.472Z,21.36
2023-09-15T05:57:10.838Z,21.46
2023-09-15T05:59:37.210Z,21.52
2023-09-15T06:02:03.591Z,21.47
2023-09-15T06:04:29.983Z,21.54
2023-09-15T06:06:56.472Z,21.53
2023-09-15T06:09:22.924Z,21.50
2023-09-15T06:11:49.306Z,21.58
2023-09-15T06:14:15.690Z,21.63
2023-09-15T06:16:42.135Z,21.64
2023-09-15T06:19:08.670Z,21.71
2023-09-15T06:21:35.551Z,21.63
2023-09-15T06:24:01.979Z,21.71
2023-09-15T06:26:28.578Z,21.70
2023-09-15T06:28:57.414Z,21.67
2023-09-15T06:31:24.361Z,21.73
2023-09-15T06:33:50.797Z,21.75
2023-09-15T06:36:17.177Z,21.71
2023-09-15T06:38:43.607Z,21.70
2023-09-15T06:41:10.002Z,21.88
2023-09-15T06:43:37.324Z,21.98
2023-09-15T06:46:03.852Z,22.03
2023-09-15T06:48:30.790Z,22.07
2023-09-15T06:50:57.178Z,22.09
2023-09-15T06:53:23.600Z,22.12
2023-09-15T06:55:50.009Z,22.12
2023-09-15T06:58:16.423Z,22.01
2023-09-15T07:00:43.527Z,22.14
2023-09-15T07:03:09.998Z,21.93
2023-09-15T07:05:39.047Z,21.93
2023-09-15T07:08:05.422Z,21.93
2023-09-15T07:10:31.813Z,21.98
2023-09-15T07:12:58.264Z,22.00
2023-09-15T07:15:24.668Z,22.14
2023-09-15T07:17:51.130Z,22.31
2023-09-15T07:20:17.525Z,22.38
2023-09-15T07:22:43.933Z,22.43
2023-09-15T07:25:10.383Z,22.42
2023-09-15T07:27:36.849Z,22.46
2023-09-15T07:30:03.249Z,22.47
2023-09-15T07:32:29.694Z,22.23
2023-09-15T07:34:56.151Z,22.35
2023-09-15T07:37:22.632Z,22.46
2023-09-15T07:39:49.072Z,22.52
2023-09-15T07:42:15.468Z,22.55
2023-09-15T07:44:41.960Z,22.55
2023-09-15T07:47:11.056Z,22.57
2023-09-15T07:49:37.629Z,22.57
2023-09-15T07:52:04.528Z,22.56
2023-09-15T07:54:30.948Z,22.58
2023-09-15T07:56:57.391Z,22.63
2023-09-15T07:59:23.817Z,22.54
2023-09-15T08:01:50.302Z,22.53
2023-09-15T08:04:17.048Z,22.52
2023-09-15T08:06:43.533Z,22.55
2023-09-15T08:09:10.134Z,22.53
2023-09-15T08:11:38.756Z,22.55
2023-09-15T08:14:05.204Z,22.55
2023-09-15T08:16:31.676Z,22.64
2023-09-15T08:19:00.023Z,22.77
2023-09-15T08:21:26.573Z,22.86
2023-09-15T08:23:56.182Z,22.82
2023-09-15T08:26:23.220Z,22.45
2023-09-15T08:28:49.642Z,21.88
2023-09-15T08:31:16.055Z,22.12
2023-09-15T08:33:42.435Z,22.21
2023-09-15T08:36:08.813Z,22.28
2023-09-15T08:38:35.208Z,22.39
2023-09-15T08:41:10.994Z,22.46
2023-09-15T08:43:37.392Z,22.32
2023-09-15T08:46:04.604Z,22.18
2023-09-15T08:48:31.059Z,22.58
2023-09-15T08:50:57.467Z,22.57
2023-09-15T08:53:23.880Z,22.40
2023-09-15T08:55:50.257Z,22.37
2023-09-15T08:58:16.714Z,22.32
2023-09-15T09:00:43.606Z,22.54
2023-09-15T09:03:13.814Z,22.65
2023-09-15T09:05:40.408Z,22.69
2023-09-15T09:08:06.800Z,22.69
2023-09-15T09:10:33.220Z,22.66
2023-09-15T09:12:59.671Z,22.77
2023-09-15T09:15:26.082Z,22.81
2023-09-15T09:17:52.558Z,22.74
2023-09-15T09:20:25.673Z,22.82
2023-09-15T09:22:52.163Z,22.68
2023-09-15T09:25:34.908Z,22.62
2023-09-15T09:28:01.500Z,22.60
2023-09-15T09:30:30.574Z,22.70
2023-09-15T09:32:57.781Z,22.79
2023-09-15T09:35:24.287Z,22.83
2023-09-15T09:37:50.738Z,22.91
2023-09-15T09:40:19.222Z,22.93
2023-09-15T09:42:45.973Z,22.96
2023-09-15T09:45:12.385Z,23.08
2023-09-15T09:47:38.816Z,23.11
2023-09-15T09:50:06.306Z,23.08
2023-09-15T09:52:32.708Z,23.04
2023-09-15T09:55:01.772Z,23.12
2023-09-15T09:57:28.202Z,23.14
2023-09-15T09:59:55.253Z,23.15
2023-09-15T10:02:21.814Z,22.96
2023-09-15T10:04:48.294Z,22.81
2023-09-15T10:07:15.062Z,22.77
2023-09-15T10:09:42.484Z,22.78
2023-09-15T10:12:09.819Z,22.87
2023-09-15T10:14:36.230Z,22.82
2023-09-15T10:17:02.981Z,23.05
2023-09-15T10:19:29.344Z,23.25
2023-09-15T10:21:55.796Z,23.29
2023-09-15T10:24:22.333Z,22.99
2023-09-15T10:26:48.751Z,23.15
2023-09-15T10:29:15.164Z,23.39
2023-09-15T10:31:42.505Z,23.41
2023-09-15T10:34:08.934Z,23.33
2023-09-15T10:36:35.486Z,23.16
2023-09-15T10:39:12.058Z,23.03
2023-09-15T10:41:38.453Z,23.07
2023-09-15T10:44:04.840Z,22.81
2023-09-15T10:46:37.748Z,22.73
2023-09-15T10:49:16.669Z,23.08
2023-09-15T10:51:59.633Z,23.17
2023-09-15T10:54:26.797Z,23.22
2023-09-15T10:56:53.202Z,23.25
2023-09-15T10:59:19.566Z,23.25
2023-09-15T11:01:45.948Z,23.26
2023-09-15T11:04:13.838Z,23.24
2023-09-15T11:06:40.499Z,23.03
2023-09-15T11:09:07.248Z,22.94
2023-09-15T11:11:33.869Z,22.86
2023-09-15T11:14:01.011Z,22.87
2023-09-15T11:16:31.202Z,23.08
2023-09-15T11:19:00.437Z,23.02
2023-09-15T11:21:27.000Z,23.07
2023-09-15T11:23:53.433Z,23.11
2023-09-15T11:26:27.843Z,23.27
2023-09-15T11:28:55.439Z,23.43
2023-09-15T11:31:21.965Z,23.55
2023-09-15T11:33:48.424Z,23.57
2023-09-15T11:36:17.973Z,23.61
2023-09-15T11:38:44.894Z,23.56
2023-09-15T11:41:13.827Z,23.55
2023-09-15T11:43:40.439Z,23.37
2023-09-15T11:46:08.863Z,23.33
2023-09-15T11:48:39.456Z,23.38
2023-09-15T11:51:12.051Z,23.43
2023-09-15T11:53:38.569Z,23.42
2023-09-15T11:56:05.429Z,23.52
2023-09-15T11:58:32.434Z,23.54
2023-09-15T12:00:58.884Z,23.30
2023-09-15T12:03:26.187Z,23.17
2023-09-15T12:05:52.779Z,23.13
2023-09-15T12:08:19.523Z,23.13
2023-09-15T12:10:49.571Z,23.12
2023-09-15T12:13:21.134Z,23.16
2023-09-15T12:15:48.425Z,23.29
2023-09-15T12:18:14.919Z,23.36
2023-09-15T12:20:41.782Z,23.41
2023-09-15T12:23:14.520Z,23.46
2023-09-15T12:25:41.383Z,23.52
2023-09-15T12:28:07.777Z,23.59
2023-09-15T12:30:34.947Z,23.62
2023-09-15T12:33:01.371Z,23.62
2023-09-15T12:35:28.165Z,23.64
2023-09-15T12:37:55.340Z,23.70
2023-09-15T12:40:23.425Z,23.34
2023-09-15T12:42:52.384Z,23.29
2023-09-15T12:45:18.864Z,23.25
2023-09-15T12:47:45.314Z,23.39
2023-09-15T12:50:13.778Z,23.53
2023-09-15T12:52:40.461Z,23.67
2023-09-15T12:55:07.171Z,23.78
2023-09-15T12:57:33.626Z,23.83
2023-09-15T13:00:00.053Z,23.91
2023-09-15T13:02:27.602Z,23.99
2023-09-15T13:04:54.177Z,23.95
2023-09-15T13:07:20.729Z,23.95
2023-09-15T13:09:47.173Z,24.00
2023-09-15T13:12:14.142Z,23.97
2023-09-15T13:14:40.550Z,23.96
2023-09-15T13:17:06.999Z,23.93
2023-09-15T13:19:33.560Z,23.87
2023-09-15T13:21:59.932Z,23.96
2023-09-15T13:24:26.412Z,23.97
2023-09-15T13:26:53.551Z,23.94
2023-09-15T13:29:20.104Z,23.94
2023-09-15T13:31:46.548Z,23.97
2023-09-15T13:34:12.956Z,23.93
2023-09-15T13:36:40.073Z,24.15
2023-09-15T13:39:08.838Z,24.32
2023-09-15T13:41:35.585Z,24.32
2023-09-15T13:44:02.052Z,24.34
2023-09-15T13:46:28.464Z,24.25
2023-09-15T13:48:54.893Z,24.20
2023-09-15T13:51:28.954Z,24.38
2023-09-15T13:53:59.046Z,24.40
2023-09-15T13:56:25.459Z,24.21
2023-09-15T13:58:54.636Z,24.06
2023-09-15T14:01:21.718Z,24.15
2023-09-15T14:03:48.910Z,24.04
2023-09-15T14:06:18.122Z,24.03
2023-09-15T14:08:44.537Z,23.85
2023-09-15T14:11:11.524Z,23.78
2023-09-15T14:13:37.910Z,24.01
2023-09-15T14:16:04.385Z,24.18
2023-09-15T14:18:30.851Z,24.18
2023-09-15T14:20:59.082Z,24.20
2023-09-15T14:23:28.430Z,24.13
2023-09-15T14:25:54.946Z,23.93
2023-09-15T14:28:21.355Z,23.84
2023-09-15T14:30:51.172Z,23.88
2023-09-15T14:33:17.637Z,23.96
2023-09-15T14:35:44.024Z,23.92
2023-09-15T14:38:10.394Z,23.99
2023-09-15T14:40:36.884Z,24.01
2023-09-15T14:43:03.843Z,24.01
2023-09-15T14:45:30.294Z,23.99
2023-09-15T14:48:04.220Z,24.05
2023-09-15T14:50:31.759Z,24.09
2023-09-15T14:53:01.237Z,24.12
2023-09-15T14:55:27.660Z,24.38
2023-09-15T14:57:54.068Z,24.46
2023-09-15T15:00:20.475Z,24.38
2023-09-15T15:02:46.968Z,24.17
2023-09-15T15:05:13.384Z,24.06
2023-09-15T15:07:39.797Z,24.02
2023-09-15T15:10:06.412Z,23.99
2023-09-15T15:12:33.417Z,24.02
2023-09-15T15:14:59.908Z,24.03
2023-09-15T15:17:26.564Z,24.01
2023-09-15T15:19:53.036Z,24.14
2023-09-15T15:22:19.405Z,24.22
2023-09-15T15:24:45.935Z,24.27
2023-09-15T15:27:13.538Z,23.93
2023-09-15T15:29:42.144Z,24.06
2023-09-15T15:32:08.594Z,24.15
2023-09-15T15:34:35.024Z,24.16
2023-09-15T15:37:02.120Z,24.15
2023-09-15T15:39:28.738Z,24.07
2023-09-15T15:41:55.428Z,23.97
2023-09-15T15:44:22.534Z,23.97
2023-09-15T15:46:49.541Z,24.20
2023-09-15T15:49:16.704Z,24.29
2023-09-15T15:51:43.216Z,24.40
2023-09-15T15:54:09.845Z,24.34
2023-09-15T15:56:36.235Z,24.36
2023-09-15T15:59:02.704Z,24.28
2023-09-15T16:01:29.143Z,24.28
2023-09-15T16:03:55.784Z,24.32
2023-09-15T16:06:22.241Z,24.11
2023-09-15T16:08:48.938Z,24.07
2023-09-15T16:11:15.601Z,23.91
2023-09-15T16:13:41.965Z,23.99
2023-09-15T16:16:08.421Z,23.97
2023-09-15T16:18:34.985Z,23.92
2023-09-15T16:21:01.483Z,23.89
2023-09-15T16:23:27.894Z,23.82
2023-09-15T16:25:54.467Z,23.79
2023-09-15T16:28:20.918Z,23.76
2023-09-15T16:30:47.505Z,23.75
2023-09-15T16:33:14.074Z,23.71
2023-09-15T16:35:41.418Z,23.67
2023-09-15T16:38:07.812Z,23.66
2023-09-15T16:40:35.825Z,23.63
2023-09-15T16:43:02.515Z,23.62
2023-09-15T16:45:30.508Z,23.60
2023-09-15T16:47:57.022Z,23.64
2023-09-15T16:50:23.500Z,23.60
2023-09-15T16:52:49.992Z,23.55
2023-09-15T16:55:19.322Z,23.55
2023-09-15T16:57:45.788Z,23.57
2023-09-15T17:00:12.450Z,23.58
2023-09-15T17:02:39.377Z,23.53
2023-09-15T17:05:06.337Z,23.51
2023-09-15T17:07:33.489Z,23.50
2023-09-15T17:10:01.833Z,23.47
2023-09-15T17:12:28.276Z,23.39
2023-09-15T17:14:54.684Z,23.29
2023-09-15T17:17:21.160Z,23.28
2023-09-15T17:19:47.579Z,23.24
2023-09-15T17:22:14.309Z,23.18
2023-09-15T17:24:41.836Z,23.16
2023-09-15T17:27:08.365Z,23.07
2023-09-15T17:29:34.739Z,23.07
2023-09-15T17:32:01.200Z,23.06
2023-09-15T17:34:27.666Z,23.08
2023-09-15T17:36:54.081Z,23.10
2023-09-15T17:39:20.526Z,23.03
2023-09-15T17:41:46.929Z,23.05
2023-09-15T17:44:14.438Z,23.07
2023-09-15T17:46:40.913Z,23.06
2023-09-15T17:49:07.704Z,23.06
2023-09-15T17:51:34.261Z,23.08
2023-09-15T17:54:00.698Z,23.08
2023-09-15T17:56:27.085Z,23.10
2023-09-15T17:58:53.435Z,23.10
2023-09-15T18:01:19.839Z,23.13
2023-09-15T18:03:49.014Z,23.15
2023-09-15T18:06:22.301Z,23.13
2023-09-15T18:08:48.988Z,23.12
2023-09-15T18:11:15.745Z,23.11
2023-09-15T18:13:42.193Z,23.08
2023-09-15T18:16:08.697Z,23.07
2023-09-15T18:18:35.262Z,23.08
2023-09-15T18:21:01.697Z,23.06
2023-09-15T18:23:29.011Z,23.06
2023-09-15T18:25:55.395Z,23.04
2023-09-15T18:28:22.509Z,23.05
2023-09-15T18:30:49.104Z,23.03
2023-09-15T18:33:15.819Z,23.02
2023-09-15T18:35:42.338Z,23.02
2023-09-15T18:38:08.970Z,23.02
2023-09-15T18:40:37.272Z,23.01
2023-09-15T18:43:03.727Z,22.98
2023-09-15T18:45:30.221Z,22.96
2023-09-15T18:47:56.817Z,22.96
2023-09-15T18:50:23.292Z,22.96
2023-09-15T18:52:49.682Z,22.96
2023-09-15T18:55:16.059Z,22.95
2023-09-15T18:57:42.564Z,22.92
2023-09-15T19:00:09.359Z,22.94
2023-09-15T19:02:37.572Z,22.92
2023-09-15T19:05:06.853Z,22.92
2023-09-15T19:07:33.233Z,22.93
2023-09-15T19:10:00.940Z,22.91
2023-09-15T19:12:27.634Z,22.91
2023-09-15T19:14:54.065Z,22.91
2023-09-15T19:17:20.481Z,22.90
2023-09-15T19:19:46.868Z,22.88
2023-09-15T19:22:13.267Z,22.88
2023-09-15T19:24:39.713Z,22.86
2023-09-15T19:27:07.347Z,22.86
2023-09-15T19:29:34.203Z,22.86
2023-09-15T19:32:00.636Z,22.85
2023-09-15T19:34:27.047Z,22.83
2023-09-15T19:36:53.473Z,22.83
2023-09-15T19:39:19.941Z,22.85
2023-09-15T19:41:46.408Z,22.82
2023-09-15T19:44:15.099Z,22.83
2023-09-15T19:46:41.522Z,22.83
2023-09-15T19:49:07.909Z,22.80
2023-09-15T19:51:34.364Z,22.79
2023-09-15T19:54:00.812Z,22.80
2023-09-15T19:56:27.214Z,22.79
2023-09-15T19:58:53.583Z,22.80
2023-09-15T20:01:20.169Z,22.79
2023-09-15T20:03:47.817Z,22.78
2023-09-15T20:06:14.220Z,22.77
2023-09-15T20:08:40.620Z,22.78
2023-09-15T20:11:07.020Z,22.77
2023-09-15T20:13:33.602Z,22.77
2023-09-15T20:16:00.007Z,22.76
2023-09-15T20:18:26.497Z,22.75
2023-09-15T20:20:55.980Z,22.75
2023-09-15T20:23:22.413Z,22.75
2023-09-15T20:25:49.032Z,22.76
2023-09-15T20:28:17.229Z,22.74
2023-09-15T20:30:44.283Z,22.72
2023-09-15T20:33:11.085Z,22.72
2023-09-15T20:35:39.582Z,22.73
2023-09-15T20:38:06.730Z,22.72
2023-09-15T20:40:33.304Z,22.72
2023-09-15T20:42:59.896Z,22.71
2023-09-15T20:45:26.896Z,22.72
2023-09-15T20:47:54.529Z,22.73
2023-09-15T20:50:21.094Z,22.71
2023-09-15T20:52:47.677Z,22.69
2023-09-15T20:55:14.082Z,22.68
2023-09-15T20:57:40.504Z,22.69
2023-09-15T21:00:07.998Z,22.68
2023-09-15T21:02:36.404Z,22.67
2023-09-15T21:05:06.872Z,22.66
2023-09-15T21:07:33.293Z,22.66
2023-09-15T21:10:01.555Z,22.65
2023-09-15T21:12:28.052Z,22.67
2023-09-15T21:14:54.519Z,22.64
2023-09-15T21:17:21.111Z,22.63
2023-09-15T21:19:47.528Z,22.62
2023-09-15T21:22:14.609Z,22.61
2023-09-15T21:24:41.177Z,22.58
2023-09-15T21:27:07.680Z,22.59
2023-09-15T21:29:34.076Z,22.62
2023-09-15T21:32:00.452Z,22.58
2023-09-15T21:34:26.851Z,22.57
2023-09-15T21:36:53.274Z,22.57
2023-09-15T21:39:20.280Z,22.57
2023-09-15T21:41:46.712Z,22.56
2023-09-15T21:44:13.102Z,22.56
2023-09-15T21:46:39.559Z,22.57
2023-09-15T21:49:06.111Z,22.57
2023-09-15T21:51:32.594Z,22.57
2023-09-15T21:53:59.005Z,22.55
2023-09-15T21:56:27.841Z,22.54
2023-09-15T21:58:57.004Z,22.55
2023-09-15T22:01:24.078Z,22.55
2023-09-15T22:03:51.529Z,22.52
2023-09-15T22:06:18.141Z,22.51
2023-09-15T22:08:44.640Z,22.49
2023-09-15T22:11:11.461Z,22.48
2023-09-15T22:13:38.004Z,22.50
2023-09-15T22:16:04.696Z,22.50
2023-09-15T22:18:31.621Z,22.48
2023-09-15T22:21:01.496Z,22.49
2023-09-15T22:23:28.053Z,22.46
2023-09-15T22:25:54.439Z,22.45
2023-09-15T22:28:22.721Z,22.42
2023-09-15T22:30:49.248Z,22.45
2023-09-15T22:33:15.940Z,22.46
2023-09-15T22:35:42.727Z,22.44
2023-09-15T22:38:09.149Z,22.42
2023-09-15T22:40:35.541Z,22.44
2023-09-15T22:43:06.047Z,22.44
2023-09-15T22:45:33.711Z,22.42
2023-09-15T22:48:00.347Z,22.43
2023-09-15T22:50:27.274Z,22.43
2023-09-15T22:52:53.996Z,22.42
2023-09-15T22:55:24.589Z,22.41
2023-09-15T22:57:51.108Z,22.41
2023-09-15T23:00:17.990Z,22.41
2023-09-15T23:02:46.878Z,22.40
2023-09-15T23:05:13.267Z,22.40
2023-09-15T23:07:40.214Z,22.40
2023-09-15T23:10:07.265Z,22.40
2023-09-15T23:12:33.740Z,22.36
2023-09-15T23:15:00.163Z,22.37
2023-09-15T23:17:27.090Z,22.36
2023-09-15T23:19:55.637Z,22.36
2023-09-15T23:22:22.108Z,22.37
2023-09-15T23:24:49.124Z,22.36
2023-09-15T23:27:15.629Z,22.34
2023-09-15T23:29:41.999Z,22.32
2023-09-15T23:32:08.420Z,22.30
2023-09-15T23:34:34.790Z,22.28
2023-09-15T23:37:01.191Z,22.28
2023-09-15T23:39:27.604Z,22.27
2023-09-15T23:41:54.691Z,22.26
2023-09-15T23:44:21.102Z,22.22
2023-09-15T23:46:48.786Z,22.24
2023-09-15T23:49:15.197Z,22.20
2023-09-15T23:51:41.651Z,22.23
2023-09-15T23:54:08.314Z,22.22
2023-09-15T23:56:34.691Z,22.21
2023-09-15T23:59:01.070Z,22.20
